sensor_id;sensor_type;location;lat;lon;timestamp;pressure;altitude;pressure_sealevel;temperature;humidity
59289;BME280;45056;47.602;9.886;2024-01-07T00:00:37;92038.78;;;3.20;68.73
59289;BME280;45056;47.602;9.886;2024-01-07T00:03:05;92032.34;;;3.17;68.91
59289;BME280;45056;47.602;9.886;2024-01-07T00:05:35;92031.16;;;3.18;68.89
59289;BME280;45056;47.602;9.886;2024-01-07T00:08:05;92030.38;;;3.17;68.99
59289;BME280;45056;47.602;9.886;2024-01-07T00:10:33;92037.28;;;3.18;68.94
59289;BME280;45056;47.602;9.886;2024-01-07T00:13:01;92032.66;;;3.19;68.83
59289;BME280;45056;47.602;9.886;2024-01-07T00:15:31;92033.41;;;3.20;68.96
59289;BME280;45056;47.602;9.886;2024-01-07T00:17:59;92033.41;;;3.20;68.91
59289;BME280;45056;47.602;9.886;2024-01-07T00:20:27;92041.91;;;3.18;68.80
59289;BME280;45056;47.602;9.886;2024-01-07T00:22:55;92038.03;;;3.19;68.77
59289;BME280;45056;47.602;9.886;2024-01-07T00:25:23;92036.53;;;3.18;68.96
59289;BME280;45056;47.602;9.886;2024-01-07T00:27:51;92039.63;;;3.16;68.78
59289;BME280;45056;47.602;9.886;2024-01-07T00:30:21;92035.75;;;3.17;68.90
59289;BME280;45056;47.602;9.886;2024-01-07T00:32:51;92034.25;;;3.16;68.83
59289;BME280;45056;47.602;9.886;2024-01-07T00:35:19;92034.25;;;3.16;68.89
59289;BME280;45056;47.602;9.886;2024-01-07T00:37:47;92038.09;;;3.15;68.87
59289;BME280;45056;47.602;9.886;2024-01-07T00:40:15;92041.13;;;3.17;69.00
59289;BME280;45056;47.602;9.886;2024-01-07T00:42:43;92032.72;;;3.15;68.83
59289;BME280;45056;47.602;9.886;2024-01-07T00:45:12;92033.50;;;3.16;68.78
59289;BME280;45056;47.602;9.886;2024-01-07T00:47:40;92035.41;;;3.15;68.94
59289;BME280;45056;47.602;9.886;2024-01-07T00:50:10;92038.09;;;3.15;68.84
59289;BME280;45056;47.602;9.886;2024-01-07T00:52:38;92031.22;;;3.14;68.90
59289;BME280;45056;47.602;9.886;2024-01-07T00:55:09;92037.38;;;3.15;68.81
59289;BME280;45056;47.602;9.886;2024-01-07T00:57:37;92041.97;;;3.14;68.96
59289;BME280;45056;47.602;9.886;2024-01-07T01:00:07;92040.78;;;3.15;68.79
59289;BME280;45056;47.602;9.886;2024-01-07T01:02:37;92034.69;;;3.15;68.80
59289;BME280;45056;47.602;9.886;2024-01-07T01:05:05;92038.09;;;3.15;68.80
59289;BME280;45056;47.602;9.886;2024-01-07T01:07:35;92036.19;;;3.16;68.77
59289;BME280;45056;47.602;9.886;2024-01-07T01:10:04;92047.34;;;3.14;68.89
59289;BME280;45056;47.602;9.886;2024-01-07T01:12:33;92050.03;;;3.14;68.88
59289;BME280;45056;47.602;9.886;2024-01-07T01:15:01;92045.84;;;3.13;68.97
59289;BME280;45056;47.602;9.886;2024-01-07T01:17:30;92048.13;;;3.15;68.88
59289;BME280;45056;47.602;9.886;2024-01-07T01:19:58;92051.97;;;3.14;69.01
59289;BME280;45056;47.602;9.886;2024-01-07T01:22:26;92043.47;;;3.15;68.83
59289;BME280;45056;47.602;9.886;2024-01-07T01:24:55;92046.59;;;3.14;68.76
59289;BME280;45056;47.602;9.886;2024-01-07T01:27:23;92056.19;;;3.15;68.90
59289;BME280;45056;47.602;9.886;2024-01-07T01:29:51;92055.41;;;3.14;68.73
59289;BME280;45056;47.602;9.886;2024-01-07T01:32:19;92051.59;;;3.12;68.55
59289;BME280;45056;47.602;9.886;2024-01-07T01:34:47;92052.03;;;3.10;68.86
59289;BME280;45056;47.602;9.886;2024-01-07T01:37:15;92050.09;;;3.11;68.86
59289;BME280;45056;47.602;9.886;2024-01-07T01:39:43;92051.28;;;3.10;68.86
59289;BME280;45056;47.602;9.886;2024-01-07T01:42:13;92052.09;;;3.07;68.83
59289;BME280;45056;47.602;9.886;2024-01-07T01:44:41;92048.25;;;3.08;68.77
59289;BME280;45056;47.602;9.886;2024-01-07T01:47:10;92059.00;;;3.08;68.79
59289;BME280;45056;47.602;9.886;2024-01-07T01:49:39;92053.63;;;3.08;68.86
59289;BME280;45056;47.602;9.886;2024-01-07T01:52:09;92052.09;;;3.07;68.84
59289;BME280;45056;47.602;9.886;2024-01-07T01:54:39;92053.72;;;3.04;68.84
59289;BME280;45056;47.602;9.886;2024-01-07T01:57:15;92054.88;;;3.03;69.04
59289;BME280;45056;47.602;9.886;2024-01-07T01:59:47;92052.19;;;3.03;68.97
59289;BME280;45056;47.602;9.886;2024-01-07T02:02:15;92052.59;;;3.01;69.06
59289;BME280;45056;47.602;9.886;2024-01-07T02:04:43;92049.91;;;3.01;69.27
59289;BME280;45056;47.602;9.886;2024-01-07T02:07:11;92044.53;;;3.01;69.41
59289;BME280;45056;47.602;9.886;2024-01-07T02:09:39;92046.47;;;3.01;69.17
59289;BME280;45056;47.602;9.886;2024-01-07T02:12:07;92047.22;;;3.01;69.16
59289;BME280;45056;47.602;9.886;2024-01-07T02:14:39;92045.69;;;3.00;69.34
59289;BME280;45056;47.602;9.886;2024-01-07T02:17:08;92047.22;;;3.01;69.33
59289;BME280;45056;47.602;9.886;2024-01-07T02:19:36;92054.09;;;3.02;69.10
59289;BME280;45056;47.602;9.886;2024-01-07T02:22:04;92047.22;;;3.01;69.24
59289;BME280;45056;47.602;9.886;2024-01-07T02:24:33;92048.00;;;3.02;69.11
59289;BME280;45056;47.602;9.886;2024-01-07T02:27:01;92045.31;;;3.02;69.22
59289;BME280;45056;47.602;9.886;2024-01-07T02:29:29;92044.53;;;3.01;69.15
59289;BME280;45056;47.602;9.886;2024-01-07T02:31:57;92042.19;;;3.03;69.36
59289;BME280;45056;47.602;9.886;2024-01-07T02:34:25;92046.81;;;3.03;69.30
59289;BME280;45056;47.602;9.886;2024-01-07T02:36:53;92049.84;;;3.05;69.29
59289;BME280;45056;47.602;9.886;2024-01-07T02:39:21;92043.69;;;3.05;69.10
59289;BME280;45056;47.602;9.886;2024-01-07T02:41:51;92048.34;;;3.04;69.16
59289;BME280;45056;47.602;9.886;2024-01-07T02:44:19;92053.28;;;3.06;69.14
59289;BME280;45056;47.602;9.886;2024-01-07T02:46:47;92054.44;;;3.05;69.19
59289;BME280;45056;47.602;9.886;2024-01-07T02:49:15;92046.38;;;3.05;69.01
59289;BME280;45056;47.602;9.886;2024-01-07T02:51:43;92050.59;;;3.06;69.30
59289;BME280;45056;47.602;9.886;2024-01-07T02:54:15;92042.97;;;3.04;68.98
59289;BME280;45056;47.602;9.886;2024-01-07T02:56:43;92046.81;;;3.03;69.14
59289;BME280;45056;47.602;9.886;2024-01-07T02:59:12;92041.44;;;3.03;69.19
59289;BME280;45056;47.602;9.886;2024-01-07T03:01:40;92043.03;;;3.00;69.29
59289;BME280;45056;47.602;9.886;2024-01-07T03:04:10;92042.34;;;2.96;68.95
59289;BME280;45056;47.602;9.886;2024-01-07T03:06:41;92044.34;;;2.92;69.27
59289;BME280;45056;47.602;9.886;2024-01-07T03:09:09;92042.81;;;2.91;69.46
59289;BME280;45056;47.602;9.886;2024-01-07T03:11:39;92045.50;;;2.91;69.38
59289;BME280;45056;47.602;9.886;2024-01-07T03:14:09;92047.03;;;2.92;69.60
59289;BME280;45056;47.602;9.886;2024-01-07T03:16:39;92043.16;;;2.93;69.58
59289;BME280;45056;47.602;9.886;2024-01-07T03:19:07;92044.69;;;2.94;69.47
59289;BME280;45056;47.602;9.886;2024-01-07T03:21:34;92045.44;;;2.95;69.39
59289;BME280;45056;47.602;9.886;2024-01-07T03:24:03;92046.19;;;2.95;69.34
59289;BME280;45056;47.602;9.886;2024-01-07T03:26:32;92043.50;;;2.95;69.31
59289;BME280;45056;47.602;9.886;2024-01-07T03:29:00;92042.00;;;2.94;69.33
59289;BME280;45056;47.602;9.886;2024-01-07T03:31:29;92051.56;;;2.95;69.31
59289;BME280;45056;47.602;9.886;2024-01-07T03:33:58;92046.19;;;2.95;69.27
59289;BME280;45056;47.602;9.886;2024-01-07T03:36:26;92046.69;;;2.90;69.13
59289;BME280;45056;47.602;9.886;2024-01-07T03:38:54;92049.91;;;2.81;69.45
59289;BME280;45056;47.602;9.886;2024-01-07T03:41:22;92054.19;;;2.79;69.66
59289;BME280;45056;47.602;9.886;2024-01-07T03:43:50;92052.66;;;2.78;69.75
59289;BME280;45056;47.602;9.886;2024-01-07T03:46:19;92047.63;;;2.80;69.74
59289;BME280;45056;47.602;9.886;2024-01-07T03:48:48;92053.38;;;2.82;69.88
59289;BME280;45056;47.602;9.886;2024-01-07T03:51:17;92048.34;;;2.84;69.87
59289;BME280;45056;47.602;9.886;2024-01-07T03:53:45;92054.47;;;2.84;69.61
59289;BME280;45056;47.602;9.886;2024-01-07T03:56:13;92053.28;;;2.85;69.95
59289;BME280;45056;47.602;9.886;2024-01-07T03:58:41;92051.72;;;2.88;69.84
59289;BME280;45056;47.602;9.886;2024-01-07T04:01:09;92057.84;;;2.88;69.90
59289;BME280;45056;47.602;9.886;2024-01-07T04:03:37;92056.25;;;2.91;69.62
59289;BME280;45056;47.602;9.886;2024-01-07T04:06:06;92058.59;;;2.89;69.53
59289;BME280;45056;47.602;9.886;2024-01-07T04:08:36;92059.09;;;2.84;69.55
59289;BME280;45056;47.602;9.886;2024-01-07T04:11:04;92064.13;;;2.82;69.57
59289;BME280;45056;47.602;9.886;2024-01-07T04:13:32;92060.66;;;2.81;69.81
59289;BME280;45056;47.602;9.886;2024-01-07T04:16:00;92071.75;;;2.83;69.79
59289;BME280;45056;47.602;9.886;2024-01-07T04:18:28;92066.81;;;2.82;69.66
59289;BME280;45056;47.602;9.886;2024-01-07T04:20:56;92067.22;;;2.80;69.70
59289;BME280;45056;47.602;9.886;2024-01-07T04:23:24;92069.13;;;2.80;69.97
59289;BME280;45056;47.602;9.886;2024-01-07T04:25:53;92069.50;;;2.82;69.88
59289;BME280;45056;47.602;9.886;2024-01-07T04:28:21;92068.72;;;2.81;69.94
59289;BME280;45056;47.602;9.886;2024-01-07T04:30:49;92066.44;;;2.80;69.78
59289;BME280;45056;47.602;9.886;2024-01-07T04:33:17;92069.94;;;2.77;70.02
59289;BME280;45056;47.602;9.886;2024-01-07T04:35:45;92073.91;;;2.72;69.85
59289;BME280;45056;47.602;9.886;2024-01-07T04:38:14;92070.09;;;2.69;70.09
59289;BME280;45056;47.602;9.886;2024-01-07T04:40:42;92068.91;;;2.70;70.02
59289;BME280;45056;47.602;9.886;2024-01-07T04:43:11;92073.47;;;2.73;70.32
59289;BME280;45056;47.602;9.886;2024-01-07T04:45:39;92076.09;;;2.77;70.22
59289;BME280;45056;47.602;9.886;2024-01-07T04:48:07;92077.19;;;2.80;70.25
59289;BME280;45056;47.602;9.886;2024-01-07T04:50:35;92079.06;;;2.83;70.09
59289;BME280;45056;47.602;9.886;2024-01-07T04:53:03;92085.53;;;2.85;70.15
59289;BME280;45056;47.602;9.886;2024-01-07T04:55:31;92085.13;;;2.87;69.91
59289;BME280;45056;47.602;9.886;2024-01-07T04:57:59;92093.94;;;2.87;69.85
59289;BME280;45056;47.602;9.886;2024-01-07T05:00:29;92086.31;;;2.86;69.82
59289;BME280;45056;47.602;9.886;2024-01-07T05:02:57;92090.91;;;2.85;69.95
59289;BME280;45056;47.602;9.886;2024-01-07T05:05:25;92093.19;;;2.87;69.88
59289;BME280;45056;47.602;9.886;2024-01-07T05:07:53;92094.72;;;2.88;69.85
59289;BME280;45056;47.602;9.886;2024-01-07T05:10:21;92086.22;;;2.89;70.12
59289;BME280;45056;47.602;9.886;2024-01-07T05:12:49;92085.03;;;2.91;69.97
59289;BME280;45056;47.602;9.886;2024-01-07T05:15:17;92087.34;;;2.92;69.82
59289;BME280;45056;47.602;9.886;2024-01-07T05:17:46;92088.50;;;2.91;69.87
59289;BME280;45056;47.602;9.886;2024-01-07T05:20:15;92098.09;;;2.92;69.87
59289;BME280;45056;47.602;9.886;2024-01-07T05:22:43;92097.66;;;2.94;69.82
59289;BME280;45056;47.602;9.886;2024-01-07T05:25:11;92096.91;;;2.93;69.68
59289;BME280;45056;47.602;9.886;2024-01-07T05:27:39;92095.75;;;2.94;69.83
59289;BME280;45056;47.602;9.886;2024-01-07T05:30:07;92094.97;;;2.94;69.81
59289;BME280;45056;47.602;9.886;2024-01-07T05:32:35;92091.09;;;2.95;69.72
59289;BME280;45056;47.602;9.886;2024-01-07T05:35:05;92094.56;;;2.95;69.68
59289;BME280;45056;47.602;9.886;2024-01-07T05:37:33;92097.59;;;2.97;69.35
59289;BME280;45056;47.602;9.886;2024-01-07T05:40:02;92093.72;;;2.98;69.48
59289;BME280;45056;47.602;9.886;2024-01-07T05:42:30;92096.75;;;3.00;69.50
59289;BME280;45056;47.602;9.886;2024-01-07T05:44:58;92097.53;;;3.01;69.62
59289;BME280;45056;47.602;9.886;2024-01-07T05:47:26;92099.78;;;3.02;69.48
59289;BME280;45056;47.602;9.886;2024-01-07T05:49:53;92101.75;;;3.02;69.44
59289;BME280;45056;47.602;9.886;2024-01-07T05:52:23;92103.66;;;3.01;69.39
59289;BME280;45056;47.602;9.886;2024-01-07T05:54:51;92105.94;;;3.03;69.62
59289;BME280;45056;47.602;9.886;2024-01-07T05:57:19;92104.00;;;3.03;69.30
59289;BME280;45056;47.602;9.886;2024-01-07T05:59:47;92102.81;;;3.05;69.43
59289;BME280;45056;47.602;9.886;2024-01-07T06:02:17;92110.16;;;3.04;69.38
59289;BME280;45056;47.602;9.886;2024-01-07T06:04:45;92108.97;;;3.05;69.41
59289;BME280;45056;47.602;9.886;2024-01-07T06:07:13;92107.03;;;3.06;69.21
59289;BME280;45056;47.602;9.886;2024-01-07T06:09:42;92111.22;;;3.07;69.13
59289;BME280;45056;47.602;9.886;2024-01-07T06:12:10;92102.44;;;3.06;69.27
59289;BME280;45056;47.602;9.886;2024-01-07T06:14:38;92111.22;;;3.07;69.24
59289;BME280;45056;47.602;9.886;2024-01-07T06:17:06;92113.91;;;3.07;69.40
59289;BME280;45056;47.602;9.886;2024-01-07T06:19:34;92112.00;;;3.07;69.35
59289;BME280;45056;47.602;9.886;2024-01-07T06:22:02;92114.69;;;3.07;69.01
59289;BME280;45056;47.602;9.886;2024-01-07T06:24:30;92108.97;;;3.05;69.06
59289;BME280;45056;47.602;9.886;2024-01-07T06:27:00;92123.59;;;3.04;69.33
59289;BME280;45056;47.602;9.886;2024-01-07T06:29:30;92122.06;;;3.03;69.36
59289;BME280;45056;47.602;9.886;2024-01-07T06:31:58;92124.75;;;3.03;69.10
59289;BME280;45056;47.602;9.886;2024-01-07T06:34:26;92122.81;;;3.03;69.06
59289;BME280;45056;47.602;9.886;2024-01-07T06:36:54;92128.19;;;3.03;69.23
59289;BME280;45056;47.602;9.886;2024-01-07T06:39:22;92123.97;;;3.02;69.34
59289;BME280;45056;47.602;9.886;2024-01-07T06:41:50;92129.34;;;3.02;69.37
59289;BME280;45056;47.602;9.886;2024-01-07T06:44:19;92130.53;;;3.01;69.20
59289;BME280;45056;47.602;9.886;2024-01-07T06:46:47;92135.56;;;2.99;69.02
59289;BME280;45056;47.602;9.886;2024-01-07T06:49:15;92135.56;;;2.99;69.27
59289;BME280;45056;47.602;9.886;2024-01-07T06:51:43;92129.50;;;2.95;69.20
59289;BME280;45056;47.602;9.886;2024-01-07T06:54:11;92133.34;;;2.94;69.27
59289;BME280;45056;47.602;9.886;2024-01-07T06:56:39;92139.13;;;2.93;69.51
59289;BME280;45056;47.602;9.886;2024-01-07T06:59:07;92139.13;;;2.93;69.41
59289;BME280;45056;47.602;9.886;2024-01-07T07:01:36;92141.06;;;2.92;69.53
59289;BME280;45056;47.602;9.886;2024-01-07T07:04:05;92140.38;;;2.88;69.16
59289;BME280;45056;47.602;9.886;2024-01-07T07:06:33;92145.41;;;2.86;69.45
59289;BME280;45056;47.602;9.886;2024-01-07T07:09:01;92139.28;;;2.85;69.64
59289;BME280;45056;47.602;9.886;2024-01-07T07:11:29;92142.31;;;2.87;69.63
59289;BME280;45056;47.602;9.886;2024-01-07T07:13:57;92149.97;;;2.89;69.70
59289;BME280;45056;47.602;9.886;2024-01-07T07:16:25;92151.47;;;2.90;69.72
59289;BME280;45056;47.602;9.886;2024-01-07T07:18:55;92158.38;;;2.91;69.49
59289;BME280;45056;47.602;9.886;2024-01-07T07:21:23;92153.03;;;2.87;69.34
59289;BME280;45056;47.602;9.886;2024-01-07T07:23:51;92164.63;;;2.84;69.52
59289;BME280;45056;47.602;9.886;2024-01-07T07:26:19;92171.94;;;2.84;69.72
59289;BME280;45056;47.602;9.886;2024-01-07T07:28:47;92167.31;;;2.84;69.96
59289;BME280;45056;47.602;9.886;2024-01-07T07:31:15;92161.53;;;2.86;69.61
59289;BME280;45056;47.602;9.886;2024-01-07T07:33:42;92166.13;;;2.85;69.71
59289;BME280;45056;47.602;9.886;2024-01-07T07:36:12;92159.59;;;2.86;69.83
59289;BME280;45056;47.602;9.886;2024-01-07T07:38:40;92176.88;;;2.85;69.79
59289;BME280;45056;47.602;9.886;2024-01-07T07:41:08;92179.16;;;2.87;69.73
59289;BME280;45056;47.602;9.886;2024-01-07T07:43:36;92181.44;;;2.88;69.75
59289;BME280;45056;47.602;9.886;2024-01-07T07:46:04;92174.16;;;2.89;69.89
59289;BME280;45056;47.602;9.886;2024-01-07T07:48:32;92178.34;;;2.90;69.58
59289;BME280;45056;47.602;9.886;2024-01-07T07:51:00;92185.25;;;2.91;69.86
59289;BME280;45056;47.602;9.886;2024-01-07T07:53:29;92185.25;;;2.91;69.77
59289;BME280;45056;47.602;9.886;2024-01-07T07:55:56;92182.13;;;2.93;69.70
59289;BME280;45056;47.602;9.886;2024-01-07T07:58:25;92186.75;;;2.92;69.62
59289;BME280;45056;47.602;9.886;2024-01-07T08:00:53;92181.38;;;2.92;69.61
59289;BME280;45056;47.602;9.886;2024-01-07T08:03:21;92194.81;;;2.92;69.85
59289;BME280;45056;47.602;9.886;2024-01-07T08:05:49;92188.28;;;2.93;69.50
59289;BME280;45056;47.602;9.886;2024-01-07T08:08:17;92185.59;;;2.93;69.54
59289;BME280;45056;47.602;9.886;2024-01-07T08:10:47;92191.72;;;2.94;69.40
59289;BME280;45056;47.602;9.886;2024-01-07T08:13:15;92190.13;;;2.96;69.48
59289;BME280;45056;47.602;9.886;2024-01-07T08:15:43;92195.84;;;2.98;69.65
59289;BME280;45056;47.602;9.886;2024-01-07T08:18:12;92198.16;;;3.00;69.29
59289;BME280;45056;47.602;9.886;2024-01-07T08:20:40;92205.78;;;3.01;69.24
59289;BME280;45056;47.602;9.886;2024-01-07T08:23:08;92198.53;;;2.98;68.98
59289;BME280;45056;47.602;9.886;2024-01-07T08:25:36;92206.66;;;2.95;69.35
59289;BME280;45056;47.602;9.886;2024-01-07T08:28:06;92205.91;;;2.94;69.36
59289;BME280;45056;47.602;9.886;2024-01-07T08:30:34;92202.47;;;2.94;69.50
59289;BME280;45056;47.602;9.886;2024-01-07T08:33:02;92210.13;;;2.95;69.53
59289;BME280;45056;47.602;9.886;2024-01-07T08:35:30;92212.47;;;2.93;69.26
59289;BME280;45056;47.602;9.886;2024-01-07T08:37:58;92204.44;;;2.89;69.32
59289;BME280;45056;47.602;9.886;2024-01-07T08:40:26;92207.47;;;2.92;69.66
59289;BME280;45056;47.602;9.886;2024-01-07T08:42:54;92210.25;;;2.88;69.57
59289;BME280;45056;47.602;9.886;2024-01-07T08:45:23;92213.75;;;2.85;69.48
59289;BME280;45056;47.602;9.886;2024-01-07T08:47:51;92212.59;;;2.86;69.64
59289;BME280;45056;47.602;9.886;2024-01-07T08:50:19;92214.44;;;2.89;69.77
59289;BME280;45056;47.602;9.886;2024-01-07T08:52:47;92222.44;;;2.93;69.83
59289;BME280;45056;47.602;9.886;2024-01-07T08:55:15;92221.63;;;2.96;69.85
59289;BME280;45056;47.602;9.886;2024-01-07T08:57:43;92221.63;;;2.96;69.53
59289;BME280;45056;47.602;9.886;2024-01-07T09:00:15;92219.34;;;2.94;69.66
59289;BME280;45056;47.602;9.886;2024-01-07T09:02:45;92223.16;;;2.97;69.73
59289;BME280;45056;47.602;9.886;2024-01-07T09:05:13;92229.63;;;2.99;69.70
59289;BME280;45056;47.602;9.886;2024-01-07T09:07:41;92228.47;;;3.00;69.66
59289;BME280;45056;47.602;9.886;2024-01-07T09:10:09;92224.59;;;3.01;69.48
59289;BME280;45056;47.602;9.886;2024-01-07T09:12:39;92233.00;;;3.03;69.53
59289;BME280;45056;47.602;9.886;2024-01-07T09:15:08;92231.09;;;3.04;69.41
59289;BME280;45056;47.602;9.886;2024-01-07T09:17:37;92229.16;;;3.05;69.43
59289;BME280;45056;47.602;9.886;2024-01-07T09:20:08;92239.50;;;3.06;69.57
59289;BME280;45056;47.602;9.886;2024-01-07T09:22:36;92232.13;;;3.10;69.34
59289;BME280;45056;47.602;9.886;2024-01-07T09:25:05;92238.63;;;3.13;69.14
59289;BME280;45056;47.602;9.886;2024-01-07T09:27:34;92245.53;;;3.14;68.96
59289;BME280;45056;47.602;9.886;2024-01-07T09:30:02;92249.00;;;3.11;68.95
59289;BME280;45056;47.602;9.886;2024-01-07T09:32:31;92247.56;;;3.06;69.07
59289;BME280;45056;47.602;9.886;2024-01-07T09:34:59;92248.38;;;3.03;69.00
59289;BME280;45056;47.602;9.886;2024-01-07T09:37:29;92248.78;;;3.01;69.01
59289;BME280;45056;47.602;9.886;2024-01-07T09:39:57;92253.75;;;3.03;69.35
59289;BME280;45056;47.602;9.886;2024-01-07T09:42:25;92252.50;;;3.08;69.38
59289;BME280;45056;47.602;9.886;2024-01-07T09:44:53;92250.91;;;3.14;69.40
59289;BME280;45056;47.602;9.886;2024-01-07T09:47:21;92250.06;;;3.17;69.21
59289;BME280;45056;47.602;9.886;2024-01-07T09:49:50;92246.22;;;3.18;69.01
59289;BME280;45056;47.602;9.886;2024-01-07T09:52:20;92256.16;;;3.21;69.06
59289;BME280;45056;47.602;9.886;2024-01-07T09:54:54;92251.13;;;3.23;68.85
59289;BME280;45056;47.602;9.886;2024-01-07T09:57:26;92258.34;;;3.26;69.04
59289;BME280;45056;47.602;9.886;2024-01-07T09:59:55;92257.25;;;3.24;68.74
59289;BME280;45056;47.602;9.886;2024-01-07T10:02:23;92251.94;;;3.20;68.77
59289;BME280;45056;47.602;9.886;2024-01-07T10:04:51;92248.47;;;3.20;68.86
59289;BME280;45056;47.602;9.886;2024-01-07T10:07:19;92253.03;;;3.23;69.02
59289;BME280;45056;47.602;9.886;2024-01-07T10:09:47;92250.69;;;3.25;68.77
59289;BME280;45056;47.602;9.886;2024-01-07T10:12:16;92247.25;;;3.24;68.51
59289;BME280;45056;47.602;9.886;2024-01-07T10:14:45;92250.78;;;3.21;68.50
59289;BME280;45056;47.602;9.886;2024-01-07T10:17:17;92250.78;;;3.21;68.79
59289;BME280;45056;47.602;9.886;2024-01-07T10:19:45;92247.31;;;3.21;69.02
59289;BME280;45056;47.602;9.886;2024-01-07T10:22:15;92247.31;;;3.21;68.90
59289;BME280;45056;47.602;9.886;2024-01-07T10:24:43;92252.69;;;3.21;69.00
59289;BME280;45056;47.602;9.886;2024-01-07T10:27:11;92246.97;;;3.18;68.68
59289;BME280;45056;47.602;9.886;2024-01-07T10:29:41;92253.94;;;3.16;68.67
59289;BME280;45056;47.602;9.886;2024-01-07T10:32:09;92248.97;;;3.14;68.74
59289;BME280;45056;47.602;9.886;2024-01-07T10:34:37;92251.66;;;3.14;68.83
59289;BME280;45056;47.602;9.886;2024-01-07T10:37:05;92249.00;;;3.11;68.90
59289;BME280;45056;47.602;9.886;2024-01-07T10:39:33;92252.13;;;3.09;69.00
59289;BME280;45056;47.602;9.886;2024-01-07T10:42:01;92257.53;;;3.06;69.15
59289;BME280;45056;47.602;9.886;2024-01-07T10:44:31;92252.16;;;3.06;69.37
59289;BME280;45056;47.602;9.886;2024-01-07T10:47:06;92253.22;;;3.12;69.33
59289;BME280;45056;47.602;9.886;2024-01-07T10:49:40;92249.72;;;3.15;69.06
59289;BME280;45056;47.602;9.886;2024-01-07T10:52:12;92256.97;;;3.18;69.00
59289;BME280;45056;47.602;9.886;2024-01-07T10:54:42;92253.84;;;3.20;68.94
59289;BME280;45056;47.602;9.886;2024-01-07T10:57:22;92253.81;;;3.23;69.12
59289;BME280;45056;47.602;9.886;2024-01-07T10:59:57;92260.34;;;3.22;68.60
59289;BME280;45056;47.602;9.886;2024-01-07T11:02:29;92245.44;;;3.17;68.76
59289;BME280;45056;47.602;9.886;2024-01-07T11:05:07;92253.59;;;3.14;68.76
59289;BME280;45056;47.602;9.886;2024-01-07T11:07:50;92249.84;;;3.08;69.00
59289;BME280;45056;47.602;9.886;2024-01-07T11:10:35;92255.56;;;3.10;69.01
59289;BME280;45056;47.602;9.886;2024-01-07T11:13:07;92243.28;;;3.09;69.14
59289;BME280;45056;47.602;9.886;2024-01-07T11:15:59;92251.28;;;3.12;69.10
59289;BME280;45056;47.602;9.886;2024-01-07T11:18:31;92247.03;;;3.15;69.03
59289;BME280;45056;47.602;9.886;2024-01-07T11:21:02;92252.75;;;3.17;68.99
59289;BME280;45056;47.602;9.886;2024-01-07T11:23:31;92252.34;;;3.18;68.92
59289;BME280;45056;47.602;9.886;2024-01-07T11:26:00;92244.63;;;3.21;68.87
59289;BME280;45056;47.602;9.886;2024-01-07T11:28:45;92244.41;;;3.11;68.34
59289;BME280;45056;47.602;9.886;2024-01-07T11:31:16;92246.44;;;3.03;68.81
59289;BME280;45056;47.602;9.886;2024-01-07T11:33:48;92239.28;;;2.97;68.77
59289;BME280;45056;47.602;9.886;2024-01-07T11:36:18;92238.22;;;2.91;68.89
59289;BME280;45056;47.602;9.886;2024-01-07T11:38:48;92244.47;;;2.84;69.15
59289;BME280;45056;47.602;9.886;2024-01-07T11:41:20;92237.59;;;2.83;69.52
59289;BME280;45056;47.602;9.886;2024-01-07T11:43:54;92236.81;;;2.82;69.26
59289;BME280;45056;47.602;9.886;2024-01-07T11:46:23;92244.06;;;2.85;69.40
59289;BME280;45056;47.602;9.886;2024-01-07T11:48:55;92237.94;;;2.85;69.15
59289;BME280;45056;47.602;9.886;2024-01-07T11:51:25;92238.75;;;2.82;69.14
59289;BME280;45056;47.602;9.886;2024-01-07T11:53:54;92249.13;;;2.80;69.17
59289;BME280;45056;47.602;9.886;2024-01-07T11:56:24;92238.03;;;2.78;69.37
59289;BME280;45056;47.602;9.886;2024-01-07T11:58:52;92243.47;;;2.74;69.46
59289;BME280;45056;47.602;9.886;2024-01-07T12:01:20;92244.38;;;2.64;69.39
59289;BME280;45056;47.602;9.886;2024-01-07T12:03:48;92246.84;;;2.54;69.60
59289;BME280;45056;47.602;9.886;2024-01-07T12:06:19;92252.63;;;2.53;70.02
59289;BME280;45056;47.602;9.886;2024-01-07T12:08:47;92249.13;;;2.56;70.17
59289;BME280;45056;47.602;9.886;2024-01-07T12:11:16;92245.28;;;2.57;69.95
59289;BME280;45056;47.602;9.886;2024-01-07T12:13:45;92253.69;;;2.59;70.05
59289;BME280;45056;47.602;9.886;2024-01-07T12:16:14;92250.66;;;2.57;70.04
59289;BME280;45056;47.602;9.886;2024-01-07T12:18:42;92245.28;;;2.57;70.18
59289;BME280;45056;47.602;9.886;2024-01-07T12:21:10;92245.63;;;2.59;70.17
59289;BME280;45056;47.602;9.886;2024-01-07T12:23:39;92245.16;;;2.64;70.07
59289;BME280;45056;47.602;9.886;2024-01-07T12:26:08;92242.00;;;2.69;69.99
59289;BME280;45056;47.602;9.886;2024-01-07T12:28:37;92242.72;;;2.73;69.96
59289;BME280;45056;47.602;9.886;2024-01-07T12:31:07;92249.94;;;2.77;69.65
59289;BME280;45056;47.602;9.886;2024-01-07T12:33:37;92251.13;;;2.76;69.51
59289;BME280;45056;47.602;9.886;2024-01-07T12:36:07;92248.44;;;2.76;69.40
59289;BME280;45056;47.602;9.886;2024-01-07T12:38:36;92250.03;;;2.73;69.31
59289;BME280;45056;47.602;9.886;2024-01-07T12:41:07;92251.19;;;2.72;69.29
59289;BME280;45056;47.602;9.886;2024-01-07T12:43:35;92246.22;;;2.70;69.22
59289;BME280;45056;47.602;9.886;2024-01-07T12:46:04;92250.06;;;2.69;69.42
59289;BME280;45056;47.602;9.886;2024-01-07T12:48:32;92252.75;;;2.69;69.31
59289;BME280;45056;47.602;9.886;2024-01-07T12:51:01;92256.22;;;2.70;69.34
59289;BME280;45056;47.602;9.886;2024-01-07T12:53:29;92257.72;;;2.71;69.11
59289;BME280;45056;47.602;9.886;2024-01-07T12:55:57;92267.66;;;2.74;69.21
59289;BME280;45056;47.602;9.886;2024-01-07T12:58:26;92264.56;;;2.76;69.20
59289;BME280;45056;47.602;9.886;2024-01-07T13:00:54;92262.22;;;2.78;69.09
59289;BME280;45056;47.602;9.886;2024-01-07T13:03:23;92267.59;;;2.78;68.62
59289;BME280;45056;47.602;9.886;2024-01-07T13:05:51;92268.13;;;2.69;68.59
59289;BME280;45056;47.602;9.886;2024-01-07T13:08:19;92277.03;;;2.62;68.79
59289;BME280;45056;47.602;9.886;2024-01-07T13:10:48;92273.66;;;2.58;69.33
59289;BME280;45056;47.602;9.886;2024-01-07T13:13:16;92280.13;;;2.60;69.14
59289;BME280;45056;47.602;9.886;2024-01-07T13:15:46;92284.31;;;2.62;69.38
59289;BME280;45056;47.602;9.886;2024-01-07T13:18:14;92281.22;;;2.67;69.30